sensor_id;sensor_type;location;lat;lon;timestamp;pressure;altitude;pressure_sealevel;temperature;humidity
42761;BME280;31672;47.638;19.026;2022-11-15T00:01:17;100614.81;;;2.11;100.00
42761;BME280;31672;47.638;19.026;2022-11-15T00:06:21;100613.00;;;2.11;100.00
42761;BME280;31672;47.638;19.026;2022-11-15T00:11:24;100611.22;;;2.12;100.00
42761;BME280;31672;47.638;19.026;2022-11-15T00:16:27;100604.41;;;2.09;100.00
42761;BME280;31672;47.638;19.026;2022-11-15T00:21:30;100602.09;;;2.05;100.00
42761;BME280;31672;47.638;19.026;2022-11-15T00:26:33;100599.50;;;2.05;100.00
42761;BME280;31672;47.638;19.026;2022-11-15T00:31:36;100599.56;;;2.03;100.00
42761;BME280;31672;47.638;19.026;2022-11-15T00:36:40;100584.91;;;2.01;100.00
42761;BME280;31672;47.638;19.026;2022-11-15T00:41:43;100596.22;;;2.01;100.00
42761;BME280;31672;47.638;19.026;2022-11-15T00:46:45;100582.28;;;2.01;100.00
42761;BME280;31672;47.638;19.026;2022-11-15T00:51:49;100584.25;;;1.97;100.00
42761;BME280;31672;47.638;19.026;2022-11-15T00:56:51;100565.19;;;1.95;100.00
42761;BME280;31672;47.638;19.026;2022-11-15T01:01:54;100561.50;;;1.98;100.00
42761;BME280;31672;47.638;19.026;2022-11-15T01:06:58;100563.72;;;2.04;100.00
42761;BME280;31672;47.638;19.026;2022-11-15T01:12:01;100564.75;;;2.14;100.00
42761;BME280;31672;47.638;19.026;2022-11-15T01:17:04;100558.91;;;2.23;100.00
42761;BME280;31672;47.638;19.026;2022-11-15T01:22:08;100556.38;;;2.34;100.00
42761;BME280;31672;47.638;19.026;2022-11-15T01:27:11;100551.31;;;2.44;100.00
42761;BME280;31672;47.638;19.026;2022-11-15T01:32:14;100551.41;;;2.55;100.00
42761;BME280;31672;47.638;19.026;2022-11-15T01:37:17;100548.59;;;2.58;100.00
42761;BME280;31672;47.638;19.026;2022-11-15T01:42:20;100546.16;;;2.55;100.00
42761;BME280;31672;47.638;19.026;2022-11-15T01:47:28;100545.09;;;2.58;100.00
42761;BME280;31672;47.638;19.026;2022-11-15T01:52:33;100534.28;;;2.62;100.00
42761;BME280;31672;47.638;19.026;2022-11-15T01:57:38;100523.97;;;2.72;100.00
42761;BME280;31672;47.638;19.026;2022-11-15T02:02:43;100528.56;;;2.81;100.00
42761;BME280;31672;47.638;19.026;2022-11-15T02:07:46;100528.75;;;2.91;100.00
42761;BME280;31672;47.638;19.026;2022-11-15T02:12:51;100524.59;;;3.00;100.00
42761;BME280;31672;47.638;19.026;2022-11-15T02:29:03;100515.53;;;3.28;100.00
42761;BME280;31672;47.638;19.026;2022-11-15T02:40:10;100508.09;;;3.45;100.00
42761;BME280;31672;47.638;19.026;2022-11-15T02:45:23;100498.78;;;3.53;100.00
42761;BME280;31672;47.638;19.026;2022-11-15T02:50:29;100494.75;;;3.60;100.00
42761;BME280;31672;47.638;19.026;2022-11-15T02:55:38;100485.56;;;3.65;100.00
42761;BME280;31672;47.638;19.026;2022-11-15T03:07:14;100496.47;;;3.72;100.00
42761;BME280;31672;47.638;19.026;2022-11-15T03:12:42;100482.47;;;3.71;100.00
42761;BME280;31672;47.638;19.026;2022-11-15T03:18:12;100490.00;;;3.76;100.00
42761;BME280;31672;47.638;19.026;2022-11-15T03:23:18;100479.50;;;3.76;100.00
42761;BME280;31672;47.638;19.026;2022-11-15T03:28:29;100476.50;;;3.81;100.00
42761;BME280;31672;47.638;19.026;2022-11-15T03:33:35;100477.00;;;3.86;100.00
42761;BME280;31672;47.638;19.026;2022-11-15T03:38:38;100476.53;;;3.92;100.00
42761;BME280;31672;47.638;19.026;2022-11-15T03:49:52;100461.00;;;4.00;100.00
42761;BME280;31672;47.638;19.026;2022-11-15T03:55:01;100452.25;;;3.99;100.00
42761;BME280;31672;47.638;19.026;2022-11-15T04:00:06;100453.94;;;4.00;100.00
42761;BME280;31672;47.638;19.026;2022-11-15T04:05:09;100447.47;;;4.05;100.00
42761;BME280;31672;47.638;19.026;2022-11-15T04:10:13;100442.94;;;4.07;100.00
42761;BME280;31672;47.638;19.026;2022-11-15T04:15:19;100448.19;;;4.07;100.00
42761;BME280;31672;47.638;19.026;2022-11-15T04:20:28;100431.59;;;4.06;100.00
42761;BME280;31672;47.638;19.026;2022-11-15T04:26:06;100422.84;;;4.06;100.00
42761;BME280;31672;47.638;19.026;2022-11-15T04:31:09;100419.53;;;4.03;100.00
42761;BME280;31672;47.638;19.026;2022-11-15T04:36:12;100408.41;;;4.00;100.00
42761;BME280;31672;47.638;19.026;2022-11-15T04:41:34;100413.78;;;3.98;100.00
42761;BME280;31672;47.638;19.026;2022-11-15T04:46:37;100420.00;;;3.97;100.00
42761;BME280;31672;47.638;19.026;2022-11-15T04:51:40;100423.34;;;3.99;100.00
42761;BME280;31672;47.638;19.026;2022-11-15T04:56:43;100430.88;;;4.04;100.00
42761;BME280;31672;47.638;19.026;2022-11-15T05:01:46;100415.66;;;4.08;100.00
42761;BME280;31672;47.638;19.026;2022-11-15T05:06:50;100411.84;;;4.12;100.00
42761;BME280;31672;47.638;19.026;2022-11-15T05:11:54;100418.44;;;4.17;100.00
42761;BME280;31672;47.638;19.026;2022-11-15T05:16:57;100406.25;;;4.16;100.00
42761;BME280;31672;47.638;19.026;2022-11-15T05:22:00;100405.28;;;4.17;100.00
42761;BME280;31672;47.638;19.026;2022-11-15T05:27:03;100409.47;;;4.20;100.00
42761;BME280;31672;47.638;19.026;2022-11-15T05:32:06;100406.44;;;4.24;100.00
42761;BME280;31672;47.638;19.026;2022-11-15T05:37:11;100400.84;;;4.29;100.00
42761;BME280;31672;47.638;19.026;2022-11-15T05:42:15;100399.63;;;4.33;100.00
42761;BME280;31672;47.638;19.026;2022-11-15T05:47:24;100397.47;;;4.38;100.00
42761;BME280;31672;47.638;19.026;2022-11-15T05:52:33;100407.25;;;4.47;100.00
42761;BME280;31672;47.638;19.026;2022-11-15T05:57:37;100396.22;;;4.53;100.00
42761;BME280;31672;47.638;19.026;2022-11-15T06:02:40;100397.41;;;4.61;100.00
42761;BME280;31672;47.638;19.026;2022-11-15T06:07:43;100403.81;;;4.68;100.00
42761;BME280;31672;47.638;19.026;2022-11-15T06:12:46;100396.38;;;4.73;100.00
42761;BME280;31672;47.638;19.026;2022-11-15T06:17:49;100397.69;;;4.78;100.00
42761;BME280;31672;47.638;19.026;2022-11-15T06:23:03;100409.50;;;4.84;100.00
42761;BME280;31672;47.638;19.026;2022-11-15T06:28:07;100404.72;;;4.89;100.00
42761;BME280;31672;47.638;19.026;2022-11-15T06:33:10;100403.50;;;4.93;100.00
42761;BME280;31672;47.638;19.026;2022-11-15T06:38:13;100402.16;;;4.99;100.00
42761;BME280;31672;47.638;19.026;2022-11-15T06:43:16;100402.03;;;5.00;100.00
42761;BME280;31672;47.638;19.026;2022-11-15T06:48:19;100402.72;;;5.02;100.00
42761;BME280;31672;47.638;19.026;2022-11-15T06:53:22;100411.38;;;5.04;100.00
42761;BME280;31672;47.638;19.026;2022-11-15T06:58:25;100404.16;;;5.06;100.00
42761;BME280;31672;47.638;19.026;2022-11-15T07:03:28;100393.09;;;5.13;100.00
42761;BME280;31672;47.638;19.026;2022-11-15T07:08:32;100394.25;;;5.20;100.00
42761;BME280;31672;47.638;19.026;2022-11-15T07:13:36;100394.47;;;5.28;100.00
42761;BME280;31672;47.638;19.026;2022-11-15T07:18:40;100387.81;;;5.33;100.00
42761;BME280;31672;47.638;19.026;2022-11-15T07:23:43;100378.56;;;5.39;100.00
42761;BME280;31672;47.638;19.026;2022-11-15T07:28:47;100377.22;;;5.45;100.00
42761;BME280;31672;47.638;19.026;2022-11-15T07:33:51;100392.63;;;5.49;100.00
42761;BME280;31672;47.638;19.026;2022-11-15T07:38:54;100386.16;;;5.53;100.00
42761;BME280;31672;47.638;19.026;2022-11-15T07:43:57;100371.03;;;5.55;100.00
42761;BME280;31672;47.638;19.026;2022-11-15T07:49:00;100373.28;;;5.60;100.00
42761;BME280;31672;47.638;19.026;2022-11-15T07:54:03;100358.75;;;5.66;100.00
42761;BME280;31672;47.638;19.026;2022-11-15T07:59:05;100363.34;;;5.73;100.00
42761;BME280;31672;47.638;19.026;2022-11-15T08:04:10;100367.09;;;5.80;100.00
42761;BME280;31672;47.638;19.026;2022-11-15T08:09:14;100358.81;;;5.85;100.00
42761;BME280;31672;47.638;19.026;2022-11-15T08:14:17;100348.00;;;5.88;100.00
42761;BME280;31672;47.638;19.026;2022-11-15T08:19:20;100350.25;;;5.93;100.00
42761;BME280;31672;47.638;19.026;2022-11-15T08:24:22;100347.78;;;6.01;100.00
42761;BME280;31672;47.638;19.026;2022-11-15T08:29:25;100343.50;;;6.09;100.00
42761;BME280;31672;47.638;19.026;2022-11-15T08:34:28;100334.06;;;6.16;100.00
42761;BME280;31672;47.638;19.026;2022-11-15T08:39:31;100329.78;;;6.25;100.00
42761;BME280;31672;47.638;19.026;2022-11-15T08:44:34;100320.78;;;6.37;100.00
42761;BME280;31672;47.638;19.026;2022-11-15T08:49:37;100318.69;;;6.51;100.00
42761;BME280;31672;47.638;19.026;2022-11-15T08:54:40;100302.56;;;6.63;100.00
42761;BME280;31672;47.638;19.026;2022-11-15T08:59:43;100305.22;;;6.73;100.00
42761;BME280;31672;47.638;19.026;2022-11-15T09:04:47;100295.06;;;6.78;100.00
42761;BME280;31672;47.638;19.026;2022-11-15T09:09:50;100297.25;;;6.83;100.00
42761;BME280;31672;47.638;19.026;2022-11-15T09:14:53;100305.88;;;6.85;100.00
42761;BME280;31672;47.638;19.026;2022-11-15T09:19:57;100298.94;;;6.84;100.00
42761;BME280;31672;47.638;19.026;2022-11-15T09:25:00;100301.97;;;6.89;100.00
42761;BME280;31672;47.638;19.026;2022-11-15T09:30:05;100292.22;;;6.99;100.00
42761;BME280;31672;47.638;19.026;2022-11-15T09:35:08;100275.38;;;7.00;100.00
42761;BME280;31672;47.638;19.026;2022-11-15T09:40:14;100279.28;;;7.06;100.00
42761;BME280;31672;47.638;19.026;2022-11-15T09:55:58;100254.75;;;7.13;100.00
42761;BME280;31672;47.638;19.026;2022-11-15T10:01:13;100254.91;;;7.21;100.00
42761;BME280;31672;47.638;19.026;2022-11-15T10:06:25;100252.94;;;7.23;100.00
42761;BME280;31672;47.638;19.026;2022-11-15T10:11:32;100248.63;;;7.22;100.00
42761;BME280;31672;47.638;19.026;2022-11-15T10:22:50;100235.59;;;7.11;100.00
42761;BME280;31672;47.638;19.026;2022-11-15T10:33:35;100216.25;;;7.11;100.00
42761;BME280;31672;47.638;19.026;2022-11-15T10:54:34;100182.47;;;7.14;100.00
42761;BME280;31672;47.638;19.026;2022-11-15T10:59:39;100172.25;;;7.19;100.00
42761;BME280;31672;47.638;19.026;2022-11-15T11:04:51;100165.44;;;7.27;100.00
42761;BME280;31672;47.638;19.026;2022-11-15T11:10:21;100161.06;;;7.35;100.00
42761;BME280;31672;47.638;19.026;2022-11-15T11:15:46;100160.47;;;7.41;100.00
42761;BME280;31672;47.638;19.026;2022-11-15T11:20:59;100150.94;;;7.48;100.00
42761;BME280;31672;47.638;19.026;2022-11-15T11:26:33;100150.66;;;7.51;100.00
42761;BME280;31672;47.638;19.026;2022-11-15T11:31:55;100143.72;;;7.50;100.00
42761;BME280;31672;47.638;19.026;2022-11-15T11:43:59;100129.78;;;7.48;100.00
42761;BME280;31672;47.638;19.026;2022-11-15T11:55:18;100116.81;;;7.55;100.00
42761;BME280;31672;47.638;19.026;2022-11-15T12:00:26;100105.56;;;7.53;100.00
42761;BME280;31672;47.638;19.026;2022-11-15T12:05:36;100084.03;;;7.48;100.00
42761;BME280;31672;47.638;19.026;2022-11-15T12:10:40;100080.88;;;7.44;100.00
42761;BME280;31672;47.638;19.026;2022-11-15T12:15:56;100063.63;;;7.40;100.00
42761;BME280;31672;47.638;19.026;2022-11-15T12:21:13;100063.09;;;7.37;100.00
42761;BME280;31672;47.638;19.026;2022-11-15T12:26:23;100065.06;;;7.35;100.00
42761;BME280;31672;47.638;19.026;2022-11-15T12:36:42;100053.44;;;7.28;100.00
42761;BME280;31672;47.638;19.026;2022-11-15T12:42:38;100043.69;;;7.28;100.00
42761;BME280;31672;47.638;19.026;2022-11-15T12:47:42;100041.03;;;7.28;100.00
42761;BME280;31672;47.638;19.026;2022-11-15T12:58:28;100046.50;;;7.27;100.00
42761;BME280;31672;47.638;19.026;2022-11-15T13:14:57;100014.00;;;7.16;100.00
42761;BME280;31672;47.638;19.026;2022-11-15T13:30:30;100016.03;;;7.05;100.00
42761;BME280;31672;47.638;19.026;2022-11-15T13:35:39;100017.19;;;7.02;100.00
42761;BME280;31672;47.638;19.026;2022-11-15T13:40:43;100015.50;;;7.01;100.00
42761;BME280;31672;47.638;19.026;2022-11-15T13:45:50;100003.97;;;7.02;100.00
42761;BME280;31672;47.638;19.026;2022-11-15T13:56:21;99988.78;;;7.04;100.00
42761;BME280;31672;47.638;19.026;2022-11-15T14:01:31;99983.34;;;7.06;100.00
42761;BME280;31672;47.638;19.026;2022-11-15T14:06:46;99975.41;;;7.06;100.00
42761;BME280;31672;47.638;19.026;2022-11-15T14:11:55;99965.16;;;7.03;100.00
42761;BME280;31672;47.638;19.026;2022-11-15T14:17:00;99962.97;;;6.98;100.00
42761;BME280;31672;47.638;19.026;2022-11-15T14:22:22;99962.41;;;6.94;100.00
42761;BME280;31672;47.638;19.026;2022-11-15T14:27:28;99957.28;;;6.93;100.00
42761;BME280;31672;47.638;19.026;2022-11-15T14:32:52;99957.44;;;6.91;100.00
42761;BME280;31672;47.638;19.026;2022-11-15T14:37:58;99943.69;;;6.88;100.00
42761;BME280;31672;47.638;19.026;2022-11-15T14:43:02;99949.81;;;6.88;100.00
42761;BME280;31672;47.638;19.026;2022-11-15T14:48:05;99937.75;;;6.86;100.00
42761;BME280;31672;47.638;19.026;2022-11-15T14:53:12;99928.28;;;6.83;100.00
42761;BME280;31672;47.638;19.026;2022-11-15T14:58:17;99926.97;;;6.79;100.00
42761;BME280;31672;47.638;19.026;2022-11-15T15:03:20;99927.09;;;6.78;100.00
42761;BME280;31672;47.638;19.026;2022-11-15T15:08:23;99915.69;;;6.77;100.00
42761;BME280;31672;47.638;19.026;2022-11-15T15:13:26;99911.72;;;6.73;100.00
42761;BME280;31672;47.638;19.026;2022-11-15T15:18:31;99909.91;;;6.74;100.00
42761;BME280;31672;47.638;19.026;2022-11-15T15:23:34;99909.91;;;6.74;100.00
42761;BME280;31672;47.638;19.026;2022-11-15T15:28:38;99899.50;;;6.72;100.00
42761;BME280;31672;47.638;19.026;2022-11-15T15:33:43;99907.53;;;6.70;100.00
42761;BME280;31672;47.638;19.026;2022-11-15T15:38:46;99899.78;;;6.69;100.00
42761;BME280;31672;47.638;19.026;2022-11-15T15:43:49;99896.31;;;6.68;100.00
42761;BME280;31672;47.638;19.026;2022-11-15T15:48:52;99897.31;;;6.67;100.00
42761;BME280;31672;47.638;19.026;2022-11-15T15:53:55;99885.59;;;6.70;100.00
42761;BME280;31672;47.638;19.026;2022-11-15T15:59:01;99889.06;;;6.70;100.00
42761;BME280;31672;47.638;19.026;2022-11-15T16:04:03;99896.00;;;6.71;100.00
42761;BME280;31672;47.638;19.026;2022-11-15T16:09:08;99901.59;;;6.68;100.00
42761;BME280;31672;47.638;19.026;2022-11-15T16:14:18;99893.97;;;6.65;100.00
42761;BME280;31672;47.638;19.026;2022-11-15T16:19:21;99894.13;;;6.64;100.00
42761;BME280;31672;47.638;19.026;2022-11-15T16:24:24;99892.63;;;6.61;100.00
42761;BME280;31672;47.638;19.026;2022-11-15T16:29:27;99888.59;;;6.57;100.00
42761;BME280;31672;47.638;19.026;2022-11-15T16:34:30;99890.56;;;6.55;100.00
42761;BME280;31672;47.638;19.026;2022-11-15T16:39:40;99889.03;;;6.53;100.00
42761;BME280;31672;47.638;19.026;2022-11-15T16:44:43;99881.13;;;6.53;100.00
42761;BME280;31672;47.638;19.026;2022-11-15T16:49:47;99882.28;;;6.50;100.00
42761;BME280;31672;47.638;19.026;2022-11-15T16:54:50;99884.09;;;6.50;100.00
42761;BME280;31672;47.638;19.026;2022-11-15T16:59:53;99877.16;;;6.49;100.00
42761;BME280;31672;47.638;19.026;2022-11-15T17:04:56;99867.41;;;6.49;100.00
42761;BME280;31672;47.638;19.026;2022-11-15T17:09:59;99872.81;;;6.48;100.00
42761;BME280;31672;47.638;19.026;2022-11-15T17:15:03;99862.97;;;6.50;100.00
42761;BME280;31672;47.638;19.026;2022-11-15T17:20:15;99863.78;;;6.50;100.00
42761;BME280;31672;47.638;19.026;2022-11-15T17:25:19;99862.81;;;6.51;100.00
42761;BME280;31672;47.638;19.026;2022-11-15T17:30:23;99854.88;;;6.51;100.00
42761;BME280;31672;47.638;19.026;2022-11-15T17:35:26;99851.25;;;6.52;100.00
42761;BME280;31672;47.638;19.026;2022-11-15T17:40:29;99836.56;;;6.50;100.00
42761;BME280;31672;47.638;19.026;2022-11-15T17:45:32;99835.28;;;6.54;100.00
42761;BME280;31672;47.638;19.026;2022-11-15T17:50:35;99824.03;;;6.52;100.00
42761;BME280;31672;47.638;19.026;2022-11-15T17:55:38;99822.38;;;6.51;100.00
42761;BME280;31672;47.638;19.026;2022-11-15T18:00:41;99822.22;;;6.52;100.00
42761;BME280;31672;47.638;19.026;2022-11-15T18:05:43;99804.72;;;6.51;100.00
42761;BME280;31672;47.638;19.026;2022-11-15T18:10:47;99803.75;;;6.52;100.00
42761;BME280;31672;47.638;19.026;2022-11-15T18:15:54;99797.13;;;6.48;100.00
42761;BME280;31672;47.638;19.026;2022-11-15T18:26:15;99797.19;;;6.38;100.00
42761;BME280;31672;47.638;19.026;2022-11-15T18:31:24;99788.59;;;6.36;100.00
42761;BME280;31672;47.638;19.026;2022-11-15T18:36:29;99785.16;;;6.36;100.00
42761;BME280;31672;47.638;19.026;2022-11-15T18:41:32;99785.28;;;6.34;100.00
42761;BME280;31672;47.638;19.026;2022-11-15T18:46:36;99788.06;;;6.33;100.00
42761;BME280;31672;47.638;19.026;2022-11-15T18:51:41;99768.94;;;6.31;100.00
42761;BME280;31672;47.638;19.026;2022-11-15T18:56:45;99789.06;;;6.32;100.00
42761;BME280;31672;47.638;19.026;2022-11-15T19:01:48;99788.06;;;6.33;100.00
42761;BME280;31672;47.638;19.026;2022-11-15T19:06:53;99775.53;;;6.35;100.00
42761;BME280;31672;47.638;19.026;2022-11-15T19:11:57;99772.63;;;6.38;100.00
42761;BME280;31672;47.638;19.026;2022-11-15T19:17:00;99758.75;;;6.36;100.00
42761;BME280;31672;47.638;19.026;2022-11-15T19:22:03;99756.13;;;6.36;100.00
42761;BME280;31672;47.638;19.026;2022-11-15T19:27:06;99741.94;;;6.37;100.00
42761;BME280;31672;47.638;19.026;2022-11-15T19:32:09;99739.59;;;6.34;100.00
42761;BME280;31672;47.638;19.026;2022-11-15T19:37:12;99749.97;;;6.35;100.00
42761;BME280;31672;47.638;19.026;2022-11-15T19:42:15;99736.66;;;6.37;100.00
42761;BME280;31672;47.638;19.026;2022-11-15T19:47:18;99733.19;;;6.36;100.00
42761;BME280;31672;47.638;19.026;2022-11-15T19:52:21;99731.38;;;6.37;100.00
42761;BME280;31672;47.638;19.026;2022-11-15T19:57:25;99740.28;;;6.36;100.00
42761;BME280;31672;47.638;19.026;2022-11-15T20:02:28;99735.13;;;6.34;100.00
42761;BME280;31672;47.638;19.026;2022-11-15T20:07:31;99726.38;;;6.34;100.00
42761;BME280;31672;47.638;19.026;2022-11-15T20:12:34;99708.59;;;6.36;100.00
42761;BME280;31672;47.638;19.026;2022-11-15T20:17:37;99703.34;;;6.36;100.00
42761;BME280;31672;47.638;19.026;2022-11-15T20:22:40;99694.44;;;6.37;100.00
42761;BME280;31672;47.638;19.026;2022-11-15T20:27:44;99692.78;;;6.36;100.00
42761;BME280;31672;47.638;19.026;2022-11-15T20:32:47;99683.19;;;6.35;100.00
42761;BME280;31672;47.638;19.026;2022-11-15T20:37:50;99687.78;;;6.33;100.00
42761;BME280;31672;47.638;19.026;2022-11-15T20:42:53;99672.94;;;6.32;100.00
42761;BME280;31672;47.638;19.026;2022-11-15T20:47:57;99661.84;;;6.28;100.00
42761;BME280;31672;47.638;19.026;2022-11-15T20:53:12;99662.22;;;6.33;100.00
42761;BME280;31672;47.638;19.026;2022-11-15T20:58:16;99663.88;;;6.34;100.00
42761;BME280;31672;47.638;19.026;2022-11-15T21:03:19;99654.31;;;6.33;100.00
42761;BME280;31672;47.638;19.026;2022-11-15T21:08:22;99661.25;;;6.34;100.00
42761;BME280;31672;47.638;19.026;2022-11-15T21:13:25;99660.25;;;6.35;100.00
42761;BME280;31672;47.638;19.026;2022-11-15T21:18:30;99657.63;;;6.35;100.00
42761;BME280;31672;47.638;19.026;2022-11-15T21:23:33;99649.41;;;6.38;100.00
42761;BME280;31672;47.638;19.026;2022-11-15T21:28:36;99641.47;;;6.38;100.00
42761;BME280;31672;47.638;19.026;2022-11-15T21:33:40;99628.13;;;6.40;100.00
42761;BME280;31672;47.638;19.026;2022-11-15T21:38:42;99633.25;;;6.41;100.00
42761;BME280;31672;47.638;19.026;2022-11-15T21:43:45;99628.81;;;6.42;100.00
42761;BME280;31672;47.638;19.026;2022-11-15T21:48:48;99629.31;;;6.46;100.00
42761;BME280;31672;47.638;19.026;2022-11-15T21:53:55;99627.50;;;6.46;100.00
42761;BME280;31672;47.638;19.026;2022-11-15T21:58:58;99626.53;;;6.47;100.00
42761;BME280;31672;47.638;19.026;2022-11-15T22:04:02;99633.63;;;6.47;100.00
42761;BME280;31672;47.638;19.026;2022-11-15T22:09:05;99631.78;;;6.47;100.00
42761;BME280;31672;47.638;19.026;2022-11-15T22:14:08;99625.56;;;6.48;100.00
42761;BME280;31672;47.638;19.026;2022-11-15T22:19:11;99609.03;;;6.46;100.00
42761;BME280;31672;47.638;19.026;2022-11-15T22:24:14;99605.41;;;6.47;100.00
42761;BME280;31672;47.638;19.026;2022-11-15T22:29:17;99600.94;;;6.48;100.00
42761;BME280;31672;47.638;19.026;2022-11-15T22:34:21;99584.00;;;6.50;100.00
42761;BME280;31672;47.638;19.026;2022-11-15T22:39:24;99571.91;;;6.48;100.00
42761;BME280;31672;47.638;19.026;2022-11-15T22:44:27;99561.22;;;6.49;100.00
42761;BME280;31672;47.638;19.026;2022-11-15T22:49:30;99558.41;;;6.51;100.00
42761;BME280;31672;47.638;19.026;2022-11-15T22:54:33;99561.41;;;6.56;100.00
42761;BME280;31672;47.638;19.026;2022-11-15T22:59:36;99561.59;;;6.54;100.00
42761;BME280;31672;47.638;19.026;2022-11-15T23:04:39;99540.59;;;6.53;100.00
42761;BME280;31672;47.638;19.026;2022-11-15T23:09:42;99548.53;;;6.53;100.00
42761;BME280;31672;47.638;19.026;2022-11-15T23:14:52;99539.13;;;6.50;100.00
42761;BME280;31672;47.638;19.026;2022-11-15T23:19:55;99537.13;;;6.52;100.00
42761;BME280;31672;47.638;19.026;2022-11-15T23:24:59;99526.56;;;6.52;100.00
42761;BME280;31672;47.638;19.026;2022-11-15T23:30:02;99517.84;;;6.52;100.00
42761;BME280;31672;47.638;19.026;2022-11-15T23:35:24;99513.38;;;6.52;100.00
42761;BME280;31672;47.638;19.026;2022-11-15T23:40:28;99516.53;;;6.56;100.00
42761;BME280;31672;47.638;19.026;2022-11-15T23:45:31;99517.38;;;6.56;100.00
42761;BME280;31672;47.638;19.026;2022-11-15T23:50:36;99514.72;;;6.56;100.00
42761;BME280;31672;47.638;19.026;2022-11-15T23:55:39;99497.25;;;6.55;100.00
